Time;durP1;ratioP1;P1;durP2;ratioP2;P2;SDS_P1;SDS_P2;PMS_P1;PMS_P2;Temp;Humidity;BMP_temperature;BMP_pressure;BME280_temperature;BME280_humidity;BME280_pressure;Samples;Min_cycle;Max_cycle;Signal;HPM_P1;HPM_P2
2021/01/24 00:04:44;;;;;;;6.37;3.43;;;;;;;1.95;84.31;98854.66;4963990;57;1132119;-87
2021/01/24 00:09:50;;;;;;;6.93;4.23;;;;;;;1.93;84.40;98860.92;4993969;57;1132133;-87
2021/01/24 00:14:55;;;;;;;5.63;4.17;;;;;;;1.99;84.58;98876.95;4989931;56;1132090;-87
2021/01/24 00:20:01;;;;;;;8.93;3.70;;;;;;;2.02;84.22;98890.26;5026752;56;1132356;-87
2021/01/24 00:25:08;;;;;;;8.37;3.60;;;;;;;2.03;84.21;98874.51;5001791;56;1132063;-87
2021/01/24 00:30:15;;;;;;;10.60;6.13;;;;;;;1.99;84.08;98861.78;4992273;57;1132196;-87
2021/01/24 00:35:21;;;;;;;19.25;11.28;;;;;;;1.96;83.99;98857.64;4990242;57;1134381;-87
2021/01/24 00:40:27;;;;;;;16.90;8.80;;;;;;;1.98;84.05;98844.50;4990541;57;1142082;-87
2021/01/24 00:45:32;;;;;;;11.10;6.37;;;;;;;2.05;84.58;98843.13;5001912;56;1136167;-86
2021/01/24 00:50:38;;;;;;;10.10;5.23;;;;;;;2.12;84.53;98833.95;5076910;57;21151;-87
2021/01/24 00:55:45;;;;;;;7.47;4.40;;;;;;;2.08;84.02;98829.41;5013364;56;1129951;-87
2021/01/24 01:00:51;;;;;;;11.70;5.73;;;;;;;2.05;83.74;98848.33;4984457;56;1132063;-87
2021/01/24 01:05:56;;;;;;;10.33;5.47;;;;;;;1.93;83.86;98846.11;5023120;56;1134220;-86
2021/01/24 01:11:02;;;;;;;9.23;4.10;;;;;;;1.89;83.88;98845.95;4982628;56;1134199;-87
2021/01/24 01:16:08;;;;;;;9.90;4.37;;;;;;;1.88;83.97;98859.92;5029869;57;1132102;-87
2021/01/24 01:21:14;;;;;;;7.57;4.30;;;;;;;1.83;84.12;98871.16;4991453;57;1132319;-87
2021/01/24 01:26:20;;;;;;;6.50;4.20;;;;;;;1.80;84.07;98867.45;4999678;57;1132550;-87
2021/01/24 01:31:25;;;;;;;6.20;3.70;;;;;;;1.81;84.19;98857.86;5015040;56;1132064;-87
2021/01/24 01:36:33;;;;;;;6.53;3.93;;;;;;;1.83;84.29;98861.20;5005477;57;1132272;-87
2021/01/24 01:41:38;;;;;;;8.27;4.17;;;;;;;1.82;84.35;98862.13;5019702;57;1132052;-87
2021/01/24 01:46:44;;;;;;;9.33;5.17;;;;;;;1.84;84.19;98856.31;5012075;56;1132516;-87
2021/01/24 01:51:50;;;;;;;9.50;4.40;;;;;;;1.88;84.20;98856.02;5016648;56;1132057;-88
2021/01/24 01:56:56;;;;;;;8.90;4.70;;;;;;;1.92;84.13;98859.25;4981055;56;1132248;-87
2021/01/24 02:02:49;;;;;;;10.13;5.07;;;;;;;1.99;84.37;98857.87;5035467;57;1132192;-88
2021/01/24 02:08:07;;;;;;;18.67;7.50;;;;;;;2.00;84.32;98860.38;4986081;57;1134309;-87
2021/01/24 02:13:44;;;;;;;14.50;6.73;;;;;;;2.01;84.34;98862.52;5034020;56;1134362;-87
2021/01/24 02:18:53;;;;;;;10.63;6.17;;;;;;;2.03;84.05;98855.42;5023268;56;1134664;-87
2021/01/24 02:24:05;;;;;;;11.40;6.87;;;;;;;2.13;84.38;98847.81;4969265;57;1134199;-87
2021/01/24 02:29:21;;;;;;;15.00;7.33;;;;;;;2.26;84.80;98843.41;5018259;57;1134098;-87
2021/01/24 02:34:31;;;;;;;19.50;8.15;;;;;;;2.28;84.41;98839.75;5006833;56;1134419;-87
2021/01/24 02:39:38;;;;;;;20.70;8.83;;;;;;;2.29;84.34;98837.48;5002785;57;1134202;-87
2021/01/24 02:44:44;;;;;;;9.58;5.60;;;;;;;2.31;83.91;98840.81;4888821;59;1134340;-87
2021/01/24 02:49:52;;;;;;;15.47;6.73;;;;;;;2.32;83.65;98842.48;4877757;58;1132657;-87
2021/01/24 02:54:59;;;;;;;12.73;6.87;;;;;;;2.31;83.94;98846.50;5070452;57;1132210;-88
2021/01/24 03:00:08;;;;;;;12.47;6.50;;;;;;;2.34;84.23;98838.47;5018651;57;1134203;-88
2021/01/24 03:05:15;;;;;;;24.87;11.10;;;;;;;2.31;83.69;98838.67;5023480;57;1134386;-88
2021/01/24 03:10:21;;;;;;;11.50;5.83;;;;;;;2.26;83.48;98835.11;5081154;57;1136353;-89
2021/01/24 03:15:29;;;;;;;18.92;8.50;;;;;;;2.26;83.32;98846.02;5019206;57;1136664;-88
2021/01/24 03:20:39;;;;;;;8.15;4.58;;;;;;;2.17;83.28;98851.38;5040454;57;1135502;-87
2021/01/24 03:25:45;;;;;;;7.45;5.33;;;;;;;2.04;83.38;98844.06;4887073;59;1132476;-88
2021/01/24 03:30:51;;;;;;;9.90;5.87;;;;;;;2.00;83.42;98841.29;4968279;58;1132261;-88
2021/01/24 03:35:57;;;;;;;9.37;6.10;;;;;;;1.99;83.44;98832.63;4860090;58;1132146;-88
2021/01/24 03:41:02;;;;;;;9.70;4.50;;;;;;;1.98;83.42;98840.13;4906219;58;1132831;-88
2021/01/24 03:46:08;;;;;;;9.00;4.77;;;;;;;1.93;83.46;98842.67;4856241;58;1132363;-87
2021/01/24 03:51:13;;;;;;;14.03;6.60;;;;;;;1.87;83.65;98832.66;4908460;58;1132043;-88
2021/01/24 03:56:19;;;;;;;13.93;6.90;;;;;;;1.83;83.81;98826.01;4968127;58;21282;-88
2021/01/24 04:01:24;;;;;;;6.83;4.97;;;;;;;1.85;83.77;98827.55;4849754;58;1130530;-88
2021/01/24 04:06:30;;;;;;;8.15;5.28;;;;;;;1.82;83.66;98813.44;4868719;58;1132604;-88
2021/01/24 04:11:35;;;;;;;6.30;5.20;;;;;;;1.78;83.81;98817.66;4867626;58;1132222;-88
2021/01/24 04:16:41;;;;;;;13.70;6.58;;;;;;;1.74;83.95;98817.03;4885783;58;1132085;-88
2021/01/24 04:21:46;;;;;;;11.33;6.23;;;;;;;1.73;83.88;98814.06;4952959;58;1134321;-88
2021/01/24 04:26:53;;;;;;;31.53;13.03;;;;;;;1.81;84.09;98811.77;4861027;58;1134429;-88
2021/01/24 04:31:59;;;;;;;21.73;9.77;;;;;;;1.88;84.16;98805.19;4870315;58;1136269;-88
2021/01/24 04:37:04;;;;;;;15.67;8.40;;;;;;;1.92;84.27;98790.17;5033605;56;1134418;-88
2021/01/24 04:42:10;;;;;;;11.47;6.33;;;;;;;1.93;84.16;98787.45;5031629;57;1134214;-88
2021/01/24 04:47:17;;;;;;;10.10;7.13;;;;;;;1.90;83.85;98783.75;4857094;59;1134273;-88
2021/01/24 04:52:23;;;;;;;10.35;7.50;;;;;;;1.88;83.75;98782.19;4874167;59;1134307;-89
2021/01/24 04:57:30;;;;;;;15.73;7.47;;;;;;;1.98;84.41;98788.45;5014223;57;1134282;-88
2021/01/24 05:02:37;;;;;;;11.87;7.17;;;;;;;2.05;84.21;98793.58;5043353;56;1134129;-88
2021/01/24 05:07:55;;;;;;;13.13;8.50;;;;;;;2.12;84.66;98785.70;5012446;57;1134184;-88
2021/01/24 05:13:00;;;;;;;20.20;7.40;;;;;;;2.17;84.64;98785.36;5013375;57;1134250;-89
2021/01/24 05:18:07;;;;;;;15.87;8.30;;;;;;;2.19;83.84;98787.39;5016638;57;1134154;-89
2021/01/24 05:23:13;;;;;;;17.10;8.70;;;;;;;2.16;83.68;98782.37;5014103;57;1134178;-88
2021/01/24 05:28:28;;;;;;;19.47;8.90;;;;;;;2.24;84.18;98786.60;4833519;59;1134124;-88
2021/01/24 05:33:35;;;;;;;22.40;11.23;;;;;;;2.30;84.22;98793.97;4901533;58;1134253;-88
2021/01/24 05:38:40;;;;;;;21.68;10.45;;;;;;;2.26;84.19;98793.38;4870395;58;1137316;-88
2021/01/24 05:43:47;;;;;;;13.40;7.60;;;;;;;2.16;83.45;98785.83;4898029;58;1136362;-88
2021/01/24 05:48:53;;;;;;;15.93;7.20;;;;;;;2.06;83.21;98792.17;4892763;58;1134370;-88
2021/01/24 05:53:58;;;;;;;12.73;6.67;;;;;;;1.99;83.19;98794.83;4880751;58;1134208;-88
2021/01/24 05:59:05;;;;;;;9.20;5.63;;;;;;;1.95;83.28;98787.36;4906796;58;1134187;-88
2021/01/24 06:04:12;;;;;;;14.87;7.20;;;;;;;1.87;83.36;98782.66;4986389;57;1132434;-87
2021/01/24 06:09:17;;;;;;;15.00;8.70;;;;;;;1.79;83.60;98786.28;5027787;57;1134200;-88
2021/01/24 06:14:23;;;;;;;16.77;7.50;;;;;;;1.82;84.00;98785.24;4859288;58;1134602;-88
2021/01/24 06:19:33;;;;;;;13.28;6.70;;;;;;;1.87;83.92;98781.83;4985325;56;1141009;-87
2021/01/24 06:24:44;;;;;;;14.53;7.37;;;;;;;1.90;83.59;98791.58;4993275;57;1134253;-88
2021/01/24 06:29:51;;;;;;;15.10;7.37;;;;;;;1.91;83.62;98791.94;5035404;56;1134298;-87
2021/01/24 06:35:16;;;;;;;14.17;7.30;;;;;;;1.92;83.86;98789.70;4984681;56;1134208;-88
2021/01/24 06:40:31;;;;;;;18.07;8.00;;;;;;;1.88;83.71;98790.02;5027622;56;1134311;-88
2021/01/24 06:45:41;;;;;;;15.70;8.90;;;;;;;1.83;83.56;98786.45;5018814;57;1134365;-88
2021/01/24 06:50:50;;;;;;;14.47;8.37;;;;;;;1.79;83.64;98788.89;4970274;57;1134425;-87
2021/01/24 06:56:09;;;;;;;17.47;8.63;;;;;;;1.80;83.63;98787.95;4973453;57;1134497;-88
2021/01/24 07:01:30;;;;;;;26.13;12.17;;;;;;;1.77;83.75;98789.46;5005186;57;1134190;-88
2021/01/24 07:06:37;;;;;;;29.70;12.50;;;;;;;1.73;84.01;98790.61;4983473;57;1136479;-87
2021/01/24 07:11:58;;;;;;;26.97;11.87;;;;;;;1.75;84.14;98795.25;5025894;57;1134258;-88
2021/01/24 07:17:11;;;;;;;40.40;16.33;;;;;;;1.80;84.21;98795.77;5001680;57;1136173;-88
2021/01/24 07:22:22;;;;;;;47.30;18.53;;;;;;;1.83;84.01;98781.23;4978274;57;1136580;-88
2021/01/24 07:27:31;;;;;;;58.00;21.33;;;;;;;1.85;84.21;98768.89;5088171;57;1134276;-88
2021/01/24 07:32:39;;;;;;;47.10;18.92;;;;;;;1.85;84.23;98766.76;4990851;56;1137229;-88
2021/01/24 07:37:45;;;;;;;45.20;16.57;;;;;;;1.84;84.13;98761.18;4990144;57;1136233;-87
2021/01/24 07:42:51;;;;;;;37.03;16.53;;;;;;;1.86;83.87;98764.05;4980262;57;1136307;-87
2021/01/24 07:47:57;;;;;;;39.33;17.13;;;;;;;1.90;84.09;98764.67;4992531;57;1136079;-86
2021/01/24 07:53:03;;;;;;;46.77;20.17;;;;;;;1.90;84.16;98758.99;4992444;56;1136930;-87
2021/01/24 07:58:10;;;;;;;54.03;22.57;;;;;;;1.89;84.28;98760.40;4989438;57;1136719;-86
2021/01/24 08:03:23;;;;;;;55.73;21.90;;;;;;;1.93;84.56;98762.69;5077734;57;21139;-87
2021/01/24 08:08:29;;;;;;;52.40;20.20;;;;;;;2.00;84.28;98769.59;4900491;58;1132660;-87
2021/01/24 08:13:37;;;;;;;46.90;20.43;;;;;;;2.04;84.30;98765.84;4911175;58;1136181;-87
2021/01/24 08:18:46;;;;;;;44.35;19.70;;;;;;;2.09;84.29;98767.66;4860340;58;1136490;-87
2021/01/24 08:23:53;;;;;;;46.83;20.63;;;;;;;2.08;84.22;98772.04;4893774;58;1136309;-87
2021/01/24 08:29:00;;;;;;;60.98;23.98;;;;;;;2.09;84.42;98769.80;4940069;58;1136719;-88
2021/01/24 08:34:08;;;;;;;55.67;25.17;;;;;;;2.14;83.89;98776.47;4880295;58;1136417;-88
2021/01/24 08:39:13;;;;;;;70.43;30.80;;;;;;;2.11;83.69;98774.44;5066605;57;1138410;-87
2021/01/24 08:44:19;;;;;;;71.37;31.27;;;;;;;2.10;83.80;98764.95;5032701;57;1136331;-89
2021/01/24 08:49:31;;;;;;;85.40;37.73;;;;;;;2.12;84.05;98767.45;4973177;58;1132170;-88
2021/01/24 08:54:40;;;;;;;152.30;60.67;;;;;;;2.15;84.22;98764.59;4892329;58;1136522;-88
2021/01/24 09:00:02;;;;;;;124.67;48.17;;;;;;;2.14;83.47;98773.86;4996594;57;1138527;-88
2021/01/24 09:05:30;;;;;;;129.63;50.40;;;;;;;2.02;82.82;98762.03;4994705;57;1138629;-88
2021/01/24 09:10:36;;;;;;;94.70;42.40;;;;;;;1.88;82.75;98762.64;4999201;57;1138613;-88
2021/01/24 09:15:42;;;;;;;91.02;38.48;;;;;;;1.71;83.06;98768.55;5003085;57;1136364;-87
2021/01/24 09:20:50;;;;;;;57.62;25.65;;;;;;;1.65;83.29;98761.65;5028793;57;1136558;-88
2021/01/24 09:25:57;;;;;;;60.40;28.33;;;;;;;1.63;83.18;98768.27;4921030;59;1136351;-88
2021/01/24 09:31:02;;;;;;;62.05;26.35;;;;;;;1.63;83.24;98762.22;4924464;58;1136449;-88
2021/01/24 09:36:08;;;;;;;62.97;29.00;;;;;;;1.64;83.41;98776.45;5005120;56;1136665;-88
2021/01/24 09:41:14;;;;;;;67.53;30.30;;;;;;;1.64;83.56;98772.55;4993085;56;1136254;-88
2021/01/24 09:46:19;;;;;;;71.70;32.93;;;;;;;1.62;83.61;98771.81;4986722;57;1136454;-88
2021/01/24 09:51:25;;;;;;;70.83;32.27;;;;;;;1.64;83.32;98762.59;4990345;57;1136498;-87
2021/01/24 09:56:31;;;;;;;81.80;36.83;;;;;;;1.62;83.32;98767.91;5034730;57;1136431;-86
2021/01/24 10:01:37;;;;;;;86.57;39.55;;;;;;;1.60;83.44;98756.75;4957460;57;1136539;-86
2021/01/24 10:06:43;;;;;;;81.90;37.50;;;;;;;1.63;83.69;98755.23;5047320;56;1136310;-86
2021/01/24 10:11:48;;;;;;;98.40;45.10;;;;;;;1.67;84.02;98754.56;5066603;57;21107;-86
2021/01/24 10:16:59;;;;;;;108.13;43.50;;;;;;;1.78;83.93;98745.52;5040832;57;1132059;-87
2021/01/24 10:22:13;;;;;;;102.23;44.87;;;;;;;1.83;83.61;98746.52;4988525;56;1138886;-87
2021/01/24 10:27:19;;;;;;;111.60;44.43;;;;;;;1.77;83.38;98750.37;4977848;57;1138811;-86
2021/01/24 10:32:25;;;;;;;132.80;53.23;;;;;;;1.65;83.26;98745.55;5024843;57;1138496;-87
2021/01/24 10:37:30;;;;;;;82.23;38.13;;;;;;;1.56;83.18;98750.08;4990827;57;1138612;-86
2021/01/24 10:42:42;;;;;;;68.80;34.27;;;;;;;1.53;83.27;98742.96;5011158;57;1136240;-87
2021/01/24 10:47:48;;;;;;;79.90;35.83;;;;;;;1.52;83.30;98748.64;4983592;56;1137154;-86
2021/01/24 10:52:54;;;;;;;80.20;36.83;;;;;;;1.47;83.51;98747.28;4965935;56;1136732;-85
2021/01/24 10:58:26;;;;;;;70.07;32.57;;;;;;;1.46;83.78;98753.42;5056210;57;1136356;-87
2021/01/24 11:03:29;;;;;;;64.67;32.83;;;;;;;1.46;83.80;98750.35;4943882;57;1136860;-87
2021/01/24 11:08:35;;;;;;;80.05;35.83;;;;;;;1.49;83.73;98746.24;4986156;57;1136760;-86
2021/01/24 11:13:40;;;;;;;99.93;44.53;;;;;;;1.53;83.66;98755.48;5018668;57;1136275;-87
2021/01/24 11:18:46;;;;;;;93.23;43.13;;;;;;;1.55;83.82;98748.41;4986165;57;1136353;-87
2021/01/24 11:23:51;;;;;;;113.20;49.75;;;;;;;1.50;83.78;98748.38;4999248;56;1136493;-86
2021/01/24 11:28:57;;;;;;;109.30;45.40;;;;;;;1.51;83.78;98744.84;5005525;57;1138688;-86
2021/01/24 11:34:03;;;;;;;103.53;44.03;;;;;;;1.53;83.74;98742.46;4974251;57;1138487;-86
2021/01/24 11:39:13;;;;;;;99.40;43.70;;;;;;;1.58;83.80;98746.90;5028032;57;1136618;-85
2021/01/24 11:44:19;;;;;;;188.68;97.20;;;;;;;1.60;83.88;98741.58;5005892;56;1136306;-85
2021/01/24 11:49:24;;;;;;;71.70;34.27;;;;;;;1.59;83.94;98741.22;4968907;57;1138448;-87
2021/01/24 11:54:30;;;;;;;77.47;36.23;;;;;;;1.58;83.85;98736.48;4982823;57;1136457;-86
2021/01/24 11:59:38;;;;;;;68.83;33.17;;;;;;;1.60;83.78;98731.16;4970153;57;1136536;-86
2021/01/24 12:04:44;;;;;;;75.87;35.97;;;;;;;1.59;83.76;98722.98;4980540;57;1136227;-87
2021/01/24 12:09:54;;;;;;;72.37;38.10;;;;;;;1.58;83.93;98720.84;4982032;57;1136229;-87
2021/01/24 12:15:00;;;;;;;63.47;30.53;;;;;;;1.57;84.01;98720.48;4988203;57;1136398;-88
2021/01/24 12:20:06;;;;;;;58.13;26.77;;;;;;;1.61;84.11;98721.10;4991296;56;1136234;-90
2021/01/24 12:25:13;;;;;;;56.73;26.37;;;;;;;1.63;83.82;98712.72;4988783;56;1136458;-87
2021/01/24 12:30:19;;;;;;;64.23;28.57;;;;;;;1.62;83.75;98709.27;4971968;56;1136470;-87
2021/01/24 12:35:25;;;;;;;71.37;34.07;;;;;;;1.61;83.84;98705.00;4978433;57;1136306;-87
2021/01/24 12:40:30;;;;;;;107.40;53.90;;;;;;;1.59;84.11;98703.44;4990627;57;1136394;-87
2021/01/24 12:45:36;;;;;;;87.63;39.80;;;;;;;1.62;84.29;98704.53;4994053;57;1138574;-88
2021/01/24 12:50:42;;;;;;;70.80;34.57;;;;;;;1.64;83.94;98698.75;4970574;57;1136587;-88
2021/01/24 12:55:47;;;;;;;84.27;35.13;;;;;;;1.60;84.02;98699.42;4992095;57;1136651;-88
2021/01/24 13:00:53;;;;;;;57.17;25.60;;;;;;;1.60;84.39;98702.50;4997240;56;1136266;-89
2021/01/24 13:06:29;;;;;;;43.77;22.00;;;;;;;1.51;83.91;98694.88;5005380;57;1136486;-87
2021/01/24 13:11:34;;;;;;;36.93;17.37;;;;;;;1.51;83.91;98694.88;4956278;57;1136559;-87
2021/01/24 13:16:40;;;;;;;47.30;23.97;;;;;;;1.53;84.09;98709.09;5023257;57;1136249;-87
2021/01/24 13:21:45;;;;;;;52.08;24.32;;;;;;;1.50;84.24;98710.14;4998975;57;1136423;-87
2021/01/24 13:26:51;;;;;;;49.37;22.57;;;;;;;1.52;84.62;98708.73;4892742;58;1136427;-87
2021/01/24 13:31:57;;;;;;;47.37;22.70;;;;;;;1.67;84.70;98712.41;5011879;56;1136563;-88
2021/01/24 13:37:03;;;;;;;47.97;24.23;;;;;;;1.74;84.52;98706.27;4968991;57;1136390;-86
2021/01/24 13:42:09;;;;;;;73.27;33.67;;;;;;;1.78;84.46;98710.81;5001155;57;1136257;-87
2021/01/24 13:47:14;;;;;;;154.97;54.53;;;;;;;1.79;84.54;98713.30;5005547;57;1136164;-87
2021/01/24 13:52:20;;;;;;;107.40;39.40;;;;;;;1.83;84.67;98714.77;4978426;56;1138487;-87
2021/01/24 13:57:25;;;;;;;101.20;36.97;;;;;;;1.92;84.62;98710.66;4984831;57;1138576;-87
2021/01/24 14:02:32;;;;;;;158.47;56.47;;;;;;;1.97;84.19;98708.09;4934392;56;1138582;-87
2021/01/24 14:07:37;;;;;;;224.77;64.40;;;;;;;1.81;83.81;98685.37;4998666;57;1138334;-87
2021/01/24 14:12:43;;;;;;;103.67;40.23;;;;;;;1.75;83.79;98700.13;5028939;57;1138556;-87
2021/01/24 14:17:48;;;;;;;136.05;44.53;;;;;;;1.70;83.84;98704.81;4975002;57;1138747;-87
2021/01/24 14:22:54;;;;;;;91.47;37.98;;;;;;;1.72;83.82;98705.08;5011780;57;1137946;-86
2021/01/24 14:28:00;;;;;;;59.03;25.30;;;;;;;1.71;83.68;98717.74;4957833;57;1136368;-87
2021/01/24 14:33:05;;;;;;;75.27;33.13;;;;;;;1.69;83.85;98724.83;4960690;57;1136285;-87
2021/01/24 14:38:12;;;;;;;110.87;42.30;;;;;;;1.65;84.03;98723.40;4946359;57;1136365;-86
2021/01/24 14:43:18;;;;;;;268.57;105.83;;;;;;;1.62;84.00;98726.21;4980988;57;1138409;-86
2021/01/24 14:48:25;;;;;;;71.67;29.57;;;;;;;1.62;83.78;98726.68;4971856;57;1141013;-86
2021/01/24 14:53:32;;;;;;;58.17;24.30;;;;;;;1.60;83.79;98736.37;5075714;57;21502;-86
2021/01/24 14:58:37;;;;;;;37.20;17.07;;;;;;;1.58;83.93;98737.78;4983290;57;1132232;-86
2021/01/24 15:03:43;;;;;;;54.90;27.13;;;;;;;1.51;84.14;98735.72;5009487;57;1136327;-86
2021/01/24 15:08:49;;;;;;;31.03;14.33;;;;;;;1.49;84.03;98734.52;5068577;57;21153;-86
2021/01/24 15:13:54;;;;;;;26.33;13.53;;;;;;;1.48;83.98;98725.50;4967394;57;1132238;-86
2021/01/24 15:19:00;;;;;;;31.67;15.13;;;;;;;1.44;84.15;98715.76;4988103;57;1136178;-87
2021/01/24 15:24:07;;;;;;;38.37;18.67;;;;;;;1.39;84.16;98715.23;5048112;57;1136525;-87
2021/01/24 15:29:13;;;;;;;48.87;21.33;;;;;;;1.39;84.20;98718.67;4964738;57;1136498;-88
2021/01/24 15:34:18;;;;;;;58.00;25.90;;;;;;;1.42;84.15;98720.23;4970155;57;1136365;-89
2021/01/24 15:39:24;;;;;;;71.17;32.00;;;;;;;1.40;84.12;98721.64;5017046;57;1136354;-88
2021/01/24 15:44:29;;;;;;;79.10;35.60;;;;;;;1.36;84.22;98715.00;4967235;55;1136439;-88
2021/01/24 15:49:35;;;;;;;77.53;35.60;;;;;;;1.35;84.19;98723.75;4980940;57;1136503;-90
2021/01/24 15:54:40;;;;;;;67.97;31.05;;;;;;;1.37;84.28;98719.74;5017741;57;1136217;-88
2021/01/24 15:59:46;;;;;;;95.97;47.30;;;;;;;1.43;84.37;98734.93;5066216;57;21126;-88
2021/01/24 16:04:52;;;;;;;84.20;38.42;;;;;;;1.41;84.47;98739.41;5048322;57;1132191;-88
2021/01/24 16:09:58;;;;;;;247.43;99.67;;;;;;;1.41;84.42;98741.55;4961588;57;1136554;-88
2021/01/24 16:15:05;;;;;;;96.93;40.90;;;;;;;1.41;84.19;98738.11;4979525;57;1138336;-88
2021/01/24 16:20:11;;;;;;;67.17;29.73;;;;;;;1.40;84.19;98745.08;5063042;57;21191;-88
2021/01/24 16:25:18;;;;;;;57.37;27.70;;;;;;;1.44;84.35;98741.80;5027934;57;1132146;-88
2021/01/24 16:30:24;;;;;;;74.20;33.40;;;;;;;1.43;84.42;98746.65;4974803;56;1136547;-88
2021/01/24 16:35:30;;;;;;;73.33;31.60;;;;;;;1.40;84.31;98741.17;5020712;57;1136248;-88
2021/01/24 16:40:35;;;;;;;63.10;28.00;;;;;;;1.42;84.27;98739.77;5070955;56;21170;-88
2021/01/24 16:45:41;;;;;;;79.67;39.37;;;;;;;1.44;84.59;98733.99;4965662;57;1132100;-88
2021/01/24 16:50:48;;;;;;;72.37;31.57;;;;;;;1.44;84.59;98733.99;4986681;57;1136270;-87
2021/01/24 16:55:53;;;;;;;65.87;28.67;;;;;;;1.40;84.31;98732.53;5001740;57;1136350;-88
2021/01/24 17:00:59;;;;;;;181.30;79.90;;;;;;;1.37;84.16;98736.20;4975211;57;1136324;-87
2021/01/24 17:06:05;;;;;;;270.47;88.53;;;;;;;1.38;84.30;98737.84;5024584;56;1139197;-88
2021/01/24 17:11:12;;;;;;;269.63;87.83;;;;;;;1.41;84.35;98739.41;4985721;56;1138561;-88
2021/01/24 17:16:17;;;;;;;114.13;51.30;;;;;;;1.41;84.42;98735.50;5045065;57;1136217;-88
2021/01/24 17:21:23;;;;;;;70.83;32.87;;;;;;;1.36;84.40;98737.14;5060188;57;21134;-88
2021/01/24 17:26:32;;;;;;;79.57;32.63;;;;;;;1.32;84.21;98723.95;5022677;57;1132191;-88
2021/01/24 17:31:38;;;;;;;106.47;44.43;;;;;;;1.36;84.51;98720.20;4965432;57;1136459;-88
2021/01/24 17:36:44;;;;;;;80.50;37.00;;;;;;;1.41;84.40;98718.56;5021463;57;1138277;-88
2021/01/24 17:41:50;;;;;;;84.03;39.77;;;;;;;1.39;84.37;98716.53;4962294;57;1136344;-88
2021/01/24 17:46:57;;;;;;;85.33;37.30;;;;;;;1.37;84.55;98730.16;4973170;56;1136730;-87
2021/01/24 17:52:02;;;;;;;81.83;38.27;;;;;;;1.34;84.43;98722.08;5004312;56;1136336;-88
2021/01/24 17:57:12;;;;;;;85.80;39.17;;;;;;;1.35;84.40;98725.52;5072108;57;21489;-88
2021/01/24 18:02:17;;;;;;;105.43;43.83;;;;;;;1.43;84.70;98727.11;4984489;57;1132050;-88
2021/01/24 18:07:23;;;;;;;178.57;85.03;;;;;;;1.40;84.72;98729.92;4879142;58;1138318;-88
2021/01/24 18:12:31;;;;;;;66.47;27.10;;;;;;;1.37;84.53;98721.05;4846210;59;1138521;-88
2021/01/24 18:17:36;;;;;;;46.53;21.33;;;;;;;1.35;84.40;98720.31;4965347;57;1136345;-87
2021/01/24 18:22:45;;;;;;;66.10;40.47;;;;;;;1.36;84.36;98722.81;4954377;57;1136255;-87
2021/01/24 18:27:53;;;;;;;118.90;43.28;;;;;;;1.34;84.41;98716.04;5028228;56;1136308;-87
2021/01/24 18:33:03;;;;;;;79.70;25.20;;;;;;;1.29;84.51;98713.74;4972758;57;1138494;-86
2021/01/24 18:38:07;;;;;;;922.73;315.23;;;;;;;1.19;84.62;98705.37;4980356;57;1136347;-87
2021/01/24 18:43:19;;;;;;;202.03;79.40;;;;;;;1.19;84.62;98705.37;4984376;56;1140504;-87
2021/01/24 18:48:33;;;;;;;151.50;45.23;;;;;;;1.24;84.39;98711.91;4995560;56;1138736;-87
2021/01/24 18:53:39;;;;;;;219.17;66.83;;;;;;;1.26;84.52;98705.30;4970744;56;1138286;-87
2021/01/24 18:58:46;;;;;;;93.22;34.63;;;;;;;1.18;84.50;98697.19;4807166;59;1138507;-87
2021/01/24 19:03:52;;;;;;;211.60;68.37;;;;;;;1.16;84.46;98697.77;5037679;57;1136057;-87
2021/01/24 19:08:59;;;;;;;180.33;63.80;;;;;;;1.13;84.45;98695.36;4960238;57;1138507;-87
2021/01/24 19:14:05;;;;;;;105.70;52.77;;;;;;;1.13;84.50;98705.77;4972101;57;1138946;-87
2021/01/24 19:19:11;;;;;;;101.07;48.33;;;;;;;1.12;84.65;98704.94;4926578;57;1138492;-88
2021/01/24 19:24:18;;;;;;;64.17;28.83;;;;;;;1.07;84.60;98708.31;4985056;57;1138483;-88
2021/01/24 19:29:24;;;;;;;53.70;21.63;;;;;;;1.03;84.73;98706.88;4984929;57;1136337;-88
2021/01/24 19:34:34;;;;;;;79.43;31.10;;;;;;;0.99;84.80;98702.34;4964886;56;1136151;-88
2021/01/24 19:39:39;;;;;;;54.00;21.23;;;;;;;1.00;84.92;98709.22;4970828;57;1136221;-88
2021/01/24 19:44:46;;;;;;;44.93;19.80;;;;;;;0.98;84.99;98712.38;4986658;56;1136286;-89
2021/01/24 19:49:52;;;;;;;56.13;22.97;;;;;;;0.99;85.00;98717.12;4973511;57;1136710;-87
2021/01/24 19:54:58;;;;;;;50.53;21.90;;;;;;;0.93;85.04;98711.84;4894523;59;1136245;-87
2021/01/24 20:00:06;;;;;;;40.30;15.40;;;;;;;0.88;85.06;98710.05;4870499;58;1136202;-88
2021/01/24 20:05:12;;;;;;;37.33;17.57;;;;;;;0.87;85.20;98711.45;4983874;56;1136313;-87
2021/01/24 20:10:18;;;;;;;14.13;7.10;;;;;;;0.84;85.28;98721.59;4987846;56;1136152;-87
2021/01/24 20:15:24;;;;;;;41.13;19.10;;;;;;;0.86;85.25;98718.42;5085461;56;21200;-88
2021/01/24 20:20:29;;;;;;;28.27;13.23;;;;;;;0.87;85.21;98725.30;4984187;57;1132343;-87
2021/01/24 20:25:35;;;;;;;46.80;21.47;;;;;;;0.86;85.31;98729.30;4985602;57;1136490;-89
2021/01/24 20:30:41;;;;;;;34.07;14.93;;;;;;;0.85;85.38;98728.45;5053192;56;1136302;-88
2021/01/24 20:35:46;;;;;;;38.30;18.87;;;;;;;0.85;85.40;98734.13;4975626;57;1136559;-88
2021/01/24 20:40:52;;;;;;;35.33;16.90;;;;;;;0.85;85.29;98737.56;4980893;57;1136383;-88
2021/01/24 20:45:58;;;;;;;39.97;17.53;;;;;;;0.86;85.36;98734.03;5014571;56;1136236;-87
2021/01/24 20:51:05;;;;;;;56.90;27.03;;;;;;;0.81;85.45;98738.70;5077505;56;21169;-87
2021/01/24 20:56:11;;;;;;;28.70;12.67;;;;;;;0.83;85.50;98741.20;5046357;57;21186;-87
2021/01/24 21:01:17;;;;;;;32.17;15.07;;;;;;;0.80;85.65;98737.03;5051155;57;21509;-88
2021/01/24 21:06:22;;;;;;;48.67;24.73;;;;;;;0.81;85.63;98748.27;5081683;57;21142;-87
2021/01/24 21:11:28;;;;;;;55.83;24.13;;;;;;;0.78;85.52;98745.87;4981766;57;1132077;-89
2021/01/24 21:16:33;;;;;;;84.27;33.20;;;;;;;0.76;85.78;98745.16;4999197;56;1136837;-89
2021/01/24 21:21:39;;;;;;;61.35;22.73;;;;;;;0.78;85.74;98750.60;4965813;57;1145934;-89
2021/01/24 21:26:45;;;;;;;163.15;60.83;;;;;;;0.77;85.89;98748.94;5021142;57;1136603;-90
2021/01/24 21:31:50;;;;;;;80.97;21.57;;;;;;;0.78;85.81;98753.20;4991156;57;1139149;-87
2021/01/24 21:43:25;;;;;;;65.40;22.83;;;;;;;0.76;85.76;98752.50;4704090;60;1134734;-91
2021/01/24 21:48:31;;;;;;;31.57;13.43;;;;;;;0.74;85.84;98761.34;4680079;61;1136777;-88
2021/01/24 21:53:36;;;;;;;105.10;29.50;;;;;;;0.74;86.02;98767.38;4692705;61;1136768;-87
2021/01/24 21:58:42;;;;;;;53.97;17.70;;;;;;;0.73;86.01;98769.61;4668008;61;1138831;-87
2021/01/24 22:03:48;;;;;;;67.33;20.83;;;;;;;0.74;86.12;98767.84;4696402;61;1136324;-87
2021/01/24 22:08:53;;;;;;;42.93;18.93;;;;;;;0.75;86.06;98776.84;4662685;61;1136779;-87
2021/01/24 22:13:59;;;;;;;33.67;13.20;;;;;;;0.76;85.96;98775.08;4689478;61;1136633;-87
2021/01/24 22:19:04;;;;;;;37.88;16.60;;;;;;;0.75;86.00;98772.11;4678447;61;1137002;-86
2021/01/24 22:24:10;;;;;;;17.67;8.13;;;;;;;0.70;86.20;98776.30;4685634;61;1136598;-86
2021/01/24 22:29:16;;;;;;;25.13;12.83;;;;;;;0.67;86.47;98781.70;4613480;62;1135036;-87
2021/01/24 22:34:26;;;;;;;25.40;11.30;;;;;;;0.64;86.26;98782.73;4681149;61;1137047;-86
2021/01/24 22:39:32;;;;;;;16.70;8.53;;;;;;;0.60;86.45;98780.45;4586292;62;1136455;-87
2021/01/24 22:44:38;;;;;;;21.90;10.67;;;;;;;0.58;86.52;98784.91;4642029;60;1134359;-87
2021/01/24 22:49:43;;;;;;;18.62;8.93;;;;;;;0.60;86.44;98790.85;4662312;61;1137236;-87
2021/01/24 22:54:50;;;;;;;17.23;8.83;;;;;;;0.61;86.58;98793.82;4680797;61;1134888;-87
2021/01/24 22:59:56;;;;;;;11.95;6.67;;;;;;;0.55;86.59;98791.61;4687405;61;1134694;-86
2021/01/24 23:05:01;;;;;;;10.72;5.28;;;;;;;0.56;86.67;98797.17;4690329;60;1134619;-87
2021/01/24 23:10:12;;;;;;;13.03;6.33;;;;;;;0.56;87.26;98799.78;4708192;61;1134474;-87
2021/01/24 23:15:18;;;;;;;10.87;6.00;;;;;;;0.52;86.85;98794.39;4690156;60;1134211;-87
2021/01/24 23:20:23;;;;;;;25.97;11.80;;;;;;;0.52;87.10;98796.53;4590907;62;1134662;-87
2021/01/24 23:25:29;;;;;;;15.60;7.60;;;;;;;0.52;87.00;98809.53;4739294;61;1136245;-86
2021/01/24 23:30:35;;;;;;;23.97;12.37;;;;;;;0.52;86.88;98812.14;4678281;61;1134280;-87